Time;durP1;ratioP1;P1;durP2;ratioP2;P2;SDS_P1;SDS_P2;PMS_P1;PMS_P2;Temp;Humidity;BMP_temperature;BMP_pressure;BME280_temperature;BME280_humidity;BME280_pressure;Samples;Min_cycle;Max_cycle;Signal;HPM_P1;HPM_P2
2022/02/21 00:02:51;;;;;;;6.47;0.95;;;;;;;7.64;100.00;98266.72;10103416;28;20289;-66
2022/02/21 00:07:48;;;;;;;2.58;0.75;;;;;;;7.18;100.00;98290.97;10106233;28;20622;-66
2022/02/21 00:12:51;;;;;;;5.63;0.60;;;;;;;6.87;100.00;98308.91;10126877;28;20923;-67
2022/02/21 00:17:47;;;;;;;3.42;0.60;;;;;;;6.74;100.00;98291.13;10103695;28;20070;-65
2022/02/21 00:22:44;;;;;;;4.72;0.65;;;;;;;6.64;100.00;98318.81;10109835;28;20133;-67
2022/02/21 00:27:40;;;;;;;6.70;0.60;;;;;;;6.49;100.00;98364.59;10109408;28;20066;-66
2022/02/21 00:32:37;;;;;;;8.52;1.10;;;;;;;6.37;100.00;98358.44;10109013;28;20047;-63
2022/02/21 00:37:34;;;;;;;7.53;1.13;;;;;;;6.31;100.00;98366.03;10108796;28;20493;-63
2022/02/21 00:42:30;;;;;;;7.40;1.55;;;;;;;6.14;100.00;98333.78;10092100;28;20121;-63
2022/02/21 00:47:27;;;;;;;3.30;0.80;;;;;;;5.98;100.00;98350.78;10095126;28;20560;-63
2022/02/21 00:52:24;;;;;;;9.48;0.82;;;;;;;5.89;100.00;98382.66;10112267;28;20090;-63
2022/02/21 00:57:20;;;;;;;2.55;0.40;;;;;;;5.76;100.00;98383.84;10092953;28;20070;-63
2022/02/21 01:02:17;;;;;;;3.25;0.40;;;;;;;5.68;100.00;98399.88;10082532;28;20112;-63
2022/02/21 01:07:13;;;;;;;3.85;0.43;;;;;;;5.66;100.00;98385.91;10118031;28;20051;-66
2022/02/21 01:12:10;;;;;;;2.35;0.45;;;;;;;5.51;100.00;98393.94;10107866;28;20122;-65
2022/02/21 01:17:06;;;;;;;2.30;0.30;;;;;;;5.47;100.00;98377.56;10095903;28;20086;-64
2022/02/21 01:22:03;;;;;;;1.90;0.22;;;;;;;5.48;100.00;98354.75;10103468;28;20137;-69
2022/02/21 01:27:00;;;;;;;4.05;0.60;;;;;;;5.47;100.00;98394.59;10090102;28;20102;-64
2022/02/21 01:31:56;;;;;;;2.38;0.20;;;;;;;5.42;100.00;98380.50;10091850;28;20554;-63
2022/02/21 01:36:53;;;;;;;0.88;0.10;;;;;;;5.42;100.00;98380.50;10108347;28;20055;-67
2022/02/21 01:41:49;;;;;;;1.70;0.22;;;;;;;5.37;100.00;98384.22;10114555;28;20086;-64
2022/02/21 01:46:46;;;;;;;1.30;0.30;;;;;;;5.29;100.00;98428.47;10115423;28;20466;-63
2022/02/21 01:51:43;;;;;;;1.80;0.38;;;;;;;5.21;100.00;98445.66;10092493;28;20082;-64
2022/02/21 01:56:39;;;;;;;3.40;0.40;;;;;;;5.09;100.00;98476.22;10109812;28;20050;-64
2022/02/21 02:01:35;;;;;;;3.58;0.68;;;;;;;4.93;100.00;98434.66;10119548;28;20572;-64
2022/02/21 02:06:33;;;;;;;9.52;0.75;;;;;;;4.77;100.00;98491.38;11162864;23;20165;-70
2022/02/21 02:11:32;;;;;;;5.97;0.47;;;;;;;4.58;100.00;98502.69;10175665;28;20459;-70
2022/02/21 02:16:28;;;;;;;5.60;1.48;;;;;;;4.46;100.00;98516.19;10192543;28;20780;-71
2022/02/21 02:21:32;;;;;;;7.47;1.25;;;;;;;4.29;100.00;98525.19;10195345;28;20426;-71
2022/02/21 02:26:29;;;;;;;8.23;0.98;;;;;;;4.16;100.00;98508.13;10197316;28;20088;-68
2022/02/21 02:31:26;;;;;;;11.05;2.45;;;;;;;4.20;100.00;98549.59;10199067;28;20074;-68
2022/02/21 02:36:22;;;;;;;15.32;1.25;;;;;;;4.25;100.00;98530.50;10195164;28;20559;-69
2022/02/21 02:41:19;;;;;;;11.02;1.83;;;;;;;4.28;100.00;98554.16;10197510;28;20141;-69
2022/02/21 02:46:16;;;;;;;12.82;1.40;;;;;;;4.37;100.00;98535.19;10204391;28;20045;-69
2022/02/21 02:51:12;;;;;;;13.43;1.73;;;;;;;4.33;100.00;98543.16;10199755;28;20089;-72
2022/02/21 02:56:09;;;;;;;12.43;2.08;;;;;;;4.30;100.00;98537.63;10197032;28;20061;-72
2022/02/21 03:01:05;;;;;;;12.77;1.50;;;;;;;4.31;100.00;98563.53;10196385;28;20553;-71
2022/02/21 03:06:02;;;;;;;16.60;2.78;;;;;;;4.36;100.00;98574.97;10196114;28;20084;-69
2022/02/21 03:10:58;;;;;;;19.13;2.80;;;;;;;4.37;100.00;98576.53;10198317;28;20042;-73
2022/02/21 03:15:56;;;;;;;24.02;2.95;;;;;;;4.41;100.00;98582.91;10195854;28;20072;-72
2022/02/21 03:20:52;;;;;;;20.23;3.33;;;;;;;4.46;100.00;98632.53;10194697;28;20042;-71
2022/02/21 03:25:50;;;;;;;35.17;4.45;;;;;;;4.51;100.00;98586.34;10196548;28;20120;-72
2022/02/21 03:30:47;;;;;;;32.58;4.15;;;;;;;4.53;100.00;98605.75;10200468;28;20132;-72
2022/02/21 03:35:43;;;;;;;23.20;3.30;;;;;;;4.39;100.00;98614.91;10197918;28;20076;-71
2022/02/21 03:40:40;;;;;;;27.85;4.07;;;;;;;4.25;100.00;98636.00;10194467;28;20504;-74
2022/02/21 03:45:37;;;;;;;18.25;3.45;;;;;;;4.17;100.00;98663.84;10194095;28;20042;-73
2022/02/21 03:50:33;;;;;;;21.45;3.53;;;;;;;4.17;100.00;98674.69;10183232;28;20116;-74
2022/02/21 03:55:30;;;;;;;29.15;4.45;;;;;;;4.11;100.00;98682.19;10198742;28;20062;-74
2022/02/21 04:00:26;;;;;;;31.15;4.70;;;;;;;4.15;100.00;98676.91;10194971;28;20069;-70
2022/02/21 04:05:23;;;;;;;26.55;3.65;;;;;;;4.11;100.00;98693.00;10204386;28;20421;-71
2022/02/21 04:10:20;;;;;;;21.17;5.43;;;;;;;4.05;100.00;98693.50;10187469;28;20084;-70
2022/02/21 04:15:16;;;;;;;21.23;4.43;;;;;;;4.01;100.00;98704.16;10198432;28;20187;-70
2022/02/21 04:20:19;;;;;;;20.50;3.22;;;;;;;3.96;100.00;98697.03;10195304;28;20049;-71
2022/02/21 04:25:16;;;;;;;22.77;2.80;;;;;;;3.90;100.00;98714.56;10191249;28;20525;-71
2022/02/21 04:30:14;;;;;;;32.85;4.18;;;;;;;3.91;100.00;98710.72;10194491;28;20042;-69
2022/02/21 04:35:11;;;;;;;25.13;3.90;;;;;;;3.91;100.00;98748.56;10184268;28;20046;-70
2022/02/21 04:40:10;;;;;;;22.40;3.28;;;;;;;3.38;100.00;98817.28;10213710;28;20046;-70
2022/02/21 04:45:07;;;;;;;16.98;3.10;;;;;;;3.03;100.00;98795.63;10193057;28;20050;-70
2022/02/21 04:50:06;;;;;;;20.17;4.00;;;;;;;2.63;100.00;98755.19;10193715;28;20053;-70
2022/02/21 04:55:06;;;;;;;14.13;1.90;;;;;;;2.58;100.00;98789.63;10190997;28;20081;-71
2022/02/21 05:00:05;;;;;;;14.98;1.77;;;;;;;2.64;100.00;98778.34;10192646;28;20092;-69
2022/02/21 05:05:02;;;;;;;14.35;2.35;;;;;;;2.69;100.00;98790.91;10190755;28;20132;-70
2022/02/21 05:09:58;;;;;;;20.15;2.97;;;;;;;2.76;100.00;98768.88;10211954;28;20423;-69
2022/02/21 05:14:55;;;;;;;18.20;2.83;;;;;;;2.86;100.00;98779.41;10190563;28;20050;-76
2022/02/21 05:19:51;;;;;;;12.07;2.22;;;;;;;2.93;100.00;98795.91;10192572;28;20069;-76
2022/02/21 05:24:50;;;;;;;22.90;3.35;;;;;;;3.00;100.00;98785.47;10189109;28;20077;-77
2022/02/21 05:29:47;;;;;;;21.98;3.10;;;;;;;3.02;100.00;98788.63;10184178;28;21011;-76
2022/02/21 05:34:44;;;;;;;15.82;2.80;;;;;;;2.98;100.00;98787.66;10196229;28;20388;-73
2022/02/21 05:39:41;;;;;;;27.17;3.35;;;;;;;3.05;100.00;98804.19;10189027;28;20045;-73
2022/02/21 05:44:38;;;;;;;28.95;3.30;;;;;;;3.16;100.00;98800.09;10187571;28;20037;-73
2022/02/21 05:49:36;;;;;;;32.05;3.60;;;;;;;3.08;100.00;98808.97;10184647;28;20092;-76
2022/02/21 05:54:32;;;;;;;16.80;2.42;;;;;;;3.00;100.00;98798.94;10192524;28;20081;-76
2022/02/21 05:59:29;;;;;;;23.92;3.35;;;;;;;2.98;100.00;98797.69;10184590;28;20081;-72
2022/02/21 06:04:27;;;;;;;17.17;3.90;;;;;;;2.95;100.00;98809.91;10188997;28;20077;-73
2022/02/21 06:09:23;;;;;;;21.45;3.70;;;;;;;3.00;100.00;98857.56;10189882;28;20128;-74
2022/02/21 06:14:20;;;;;;;11.85;2.13;;;;;;;2.78;100.00;98831.44;10192406;28;20050;-73
2022/02/21 06:19:19;;;;;;;15.35;2.05;;;;;;;2.73;100.00;98870.94;10193565;28;20515;-73
2022/02/21 06:24:15;;;;;;;23.35;2.70;;;;;;;2.64;100.00;98866.63;10192679;28;20111;-72
2022/02/21 06:29:14;;;;;;;19.95;2.65;;;;;;;2.53;100.00;98868.78;10183839;28;20053;-73
2022/02/21 06:34:10;;;;;;;18.52;2.58;;;;;;;2.55;100.00;98861.16;10188978;28;20050;-72
2022/02/21 06:39:07;;;;;;;20.88;3.75;;;;;;;2.60;100.00;98879.94;10193900;28;20046;-72
2022/02/21 06:44:04;;;;;;;15.73;2.63;;;;;;;2.63;100.00;98882.00;10193013;28;20046;-73
2022/02/21 06:49:00;;;;;;;22.80;3.10;;;;;;;2.77;100.00;98878.44;10188290;28;20050;-74
2022/02/21 06:53:59;;;;;;;26.73;4.50;;;;;;;2.76;100.00;98879.53;10191333;28;20050;-74
2022/02/21 06:58:55;;;;;;;21.17;2.40;;;;;;;2.76;100.00;98893.00;10192995;28;20042;-74
2022/02/21 07:03:54;;;;;;;24.52;3.25;;;;;;;2.80;100.00;98894.00;10191952;28;20038;-73
2022/02/21 07:08:51;;;;;;;21.00;3.08;;;;;;;2.83;100.00;98882.56;10182197;28;20053;-73
2022/02/21 07:13:48;;;;;;;15.93;2.25;;;;;;;2.80;100.00;98910.19;10188305;28;20046;-74
2022/02/21 07:18:44;;;;;;;16.70;3.38;;;;;;;2.74;100.00;98902.22;10192225;28;20408;-74
2022/02/21 07:23:42;;;;;;;18.48;2.63;;;;;;;2.69;100.00;98933.94;10192888;28;20077;-74
2022/02/21 07:28:38;;;;;;;16.23;3.35;;;;;;;2.59;100.00;98929.59;10188467;28;20496;-73
2022/02/21 07:33:35;;;;;;;18.80;2.65;;;;;;;2.60;100.00;98933.91;10193523;28;20458;-74
2022/02/21 07:38:31;;;;;;;16.52;2.85;;;;;;;2.57;100.00;98944.50;10189240;28;20503;-74
2022/02/21 07:43:28;;;;;;;13.18;2.25;;;;;;;2.76;100.00;98947.78;10169813;28;20129;-75
2022/02/21 07:48:26;;;;;;;16.33;2.47;;;;;;;2.87;100.00;98937.53;10189478;28;20073;-73
2022/02/21 07:53:22;;;;;;;19.70;2.92;;;;;;;2.92;100.00;98911.22;10188115;28;20127;-73
2022/02/21 07:58:19;;;;;;;15.10;2.10;;;;;;;2.95;100.00;98929.47;10182308;28;20120;-73
2022/02/21 08:03:17;;;;;;;13.10;2.40;;;;;;;2.80;100.00;98986.56;10187922;28;20088;-73
2022/02/21 08:08:13;;;;;;;19.08;3.47;;;;;;;2.63;100.00;98971.06;10186445;28;20076;-73
2022/02/21 08:13:10;;;;;;;20.05;1.90;;;;;;;2.43;100.00;99012.78;10188413;28;20838;-74
2022/02/21 08:18:06;;;;;;;16.70;2.45;;;;;;;2.04;100.00;98975.66;10189466;28;20520;-73
2022/02/21 08:23:03;;;;;;;24.10;3.80;;;;;;;2.05;100.00;98988.06;10195118;28;20140;-73
2022/02/21 08:27:59;;;;;;;16.42;2.88;;;;;;;2.05;100.00;99025.81;10187589;28;20499;-73
2022/02/21 08:32:56;;;;;;;17.00;2.30;;;;;;;1.85;100.00;99040.50;10184663;28;20077;-73
2022/02/21 08:37:54;;;;;;;19.60;2.75;;;;;;;1.45;100.00;99062.53;10185024;28;20136;-73
2022/02/21 08:42:57;;;;;;;15.05;2.33;;;;;;;1.02;100.00;99049.31;10178799;28;20077;-73
2022/02/21 08:47:54;;;;;;;13.73;2.35;;;;;;;1.02;100.00;99030.47;10182778;28;20069;-73
2022/02/21 08:52:51;;;;;;;13.93;2.45;;;;;;;0.89;100.00;99033.91;10185056;28;20172;-74
2022/02/21 08:57:47;;;;;;;11.55;1.92;;;;;;;0.72;100.00;99034.47;10186818;28;20076;-73
2022/02/21 09:02:45;;;;;;;13.10;2.17;;;;;;;0.86;100.00;99025.63;10188456;28;20101;-74
2022/02/21 09:08:03;;;;;;;19.58;3.83;;;;;;;0.99;100.00;99022.97;10192581;28;20048;-74
2022/02/21 09:13:00;;;;;;;14.15;2.58;;;;;;;1.09;100.00;99023.88;10179958;28;20038;-73
2022/02/21 09:17:57;;;;;;;15.95;2.83;;;;;;;1.17;100.00;99007.06;10183924;28;20053;-73
2022/02/21 09:22:53;;;;;;;13.20;3.08;;;;;;;1.18;100.00;99000.56;10183570;28;20046;-73
2022/02/21 09:27:52;;;;;;;20.17;3.63;;;;;;;1.47;100.00;99003.78;10188575;28;20868;-75
2022/02/21 09:32:49;;;;;;;15.57;3.30;;;;;;;1.88;100.00;98984.09;10195834;28;20122;-75
2022/02/21 09:37:47;;;;;;;24.60;3.08;;;;;;;2.09;100.00;99016.81;10193237;28;20076;-73
2022/02/21 09:42:44;;;;;;;19.80;2.95;;;;;;;2.20;100.00;99009.28;10200882;28;20054;-73
2022/02/21 09:47:43;;;;;;;14.07;3.05;;;;;;;2.34;100.00;98998.44;10192660;28;20045;-73
2022/02/21 09:53:02;;;;;;;21.40;3.88;;;;;;;2.49;100.00;98997.31;10198971;28;20657;-73
2022/02/21 09:58:00;;;;;;;17.45;3.53;;;;;;;2.59;100.00;99018.63;10193627;28;20076;-74
2022/02/21 10:03:00;;;;;;;17.70;4.05;;;;;;;2.79;100.00;99000.38;10195831;28;20049;-74
2022/02/21 10:08:01;;;;;;;21.80;2.45;;;;;;;2.95;100.00;98998.88;10190847;28;20060;-71
2022/02/21 10:13:02;;;;;;;18.88;3.17;;;;;;;3.10;100.00;99001.19;10193013;28;20059;-75
2022/02/21 10:18:14;;;;;;;12.55;1.75;;;;;;;3.26;100.00;99008.88;10189022;28;20062;-75
2022/02/21 10:23:11;;;;;;;23.77;3.42;;;;;;;3.43;100.00;99000.84;10188444;28;20343;-74
2022/02/21 10:28:07;;;;;;;17.52;2.50;;;;;;;3.54;100.00;99002.16;10185233;28;20034;-74
2022/02/21 10:33:11;;;;;;;19.70;3.55;;;;;;;3.71;100.00;98995.22;10186157;28;20073;-72
2022/02/21 10:38:09;;;;;;;22.33;3.00;;;;;;;3.86;100.00;99005.59;10194607;28;20046;-74
2022/02/21 10:43:11;;;;;;;23.17;3.45;;;;;;;3.90;100.00;99003.88;10195027;28;20628;-73
2022/02/21 10:48:14;;;;;;;14.25;2.70;;;;;;;3.94;100.00;99023.72;10190563;28;20400;-73
2022/02/21 10:53:12;;;;;;;16.55;2.95;;;;;;;3.96;100.00;99026.91;10184020;28;20411;-75
2022/02/21 10:58:26;;;;;;;22.90;3.85;;;;;;;3.90;100.00;99022.78;10186830;28;20162;-74
2022/02/21 11:03:25;;;;;;;19.08;5.15;;;;;;;3.88;100.00;99041.22;10185178;28;20115;-72
2022/02/21 11:08:26;;;;;;;17.20;2.42;;;;;;;3.85;100.00;99031.03;10145863;28;1142615;-74
2022/02/21 11:13:25;;;;;;;16.40;3.65;;;;;;;3.79;100.00;99045.81;10186210;28;20075;-74
2022/02/21 11:18:23;;;;;;;19.13;3.38;;;;;;;3.75;100.00;99059.16;10184333;28;20077;-74
2022/02/21 11:23:20;;;;;;;6.43;1.67;;;;;;;3.66;100.00;99055.63;10190860;28;20520;-75
2022/02/21 11:28:22;;;;;;;11.43;2.17;;;;;;;3.62;100.00;99059.25;10193716;28;20104;-74
2022/02/21 11:33:20;;;;;;;10.88;1.95;;;;;;;3.62;100.00;99059.25;10191122;28;20073;-76
2022/02/21 11:38:20;;;;;;;12.60;1.83;;;;;;;3.67;100.00;99078.84;10194806;28;20045;-76
2022/02/21 11:43:37;;;;;;;9.57;1.70;;;;;;;3.63;100.00;99044.66;10198494;28;20066;-75
2022/02/21 11:49:01;;;;;;;18.67;2.80;;;;;;;3.66;100.00;99054.81;10188083;28;20118;-75
2022/02/21 11:54:13;;;;;;;11.73;1.98;;;;;;;3.66;100.00;99052.91;10188471;28;20077;-75
2022/02/21 11:59:29;;;;;;;15.05;2.15;;;;;;;3.54;100.00;99068.94;10178364;28;20139;-76
2022/02/21 12:04:28;;;;;;;16.17;2.63;;;;;;;3.54;100.00;99096.75;10174642;28;20038;-76
2022/02/21 12:09:28;;;;;;;13.25;2.50;;;;;;;3.55;100.00;99071.31;10173073;28;20077;-74
2022/02/21 12:14:24;;;;;;;16.23;4.00;;;;;;;3.40;100.00;99073.63;10168024;28;20046;-75
2022/02/21 12:19:28;;;;;;;9.00;2.03;;;;;;;3.38;100.00;99073.94;10166160;28;20245;-74
2022/02/21 12:24:25;;;;;;;7.70;1.83;;;;;;;3.30;100.00;99063.91;10167263;28;20140;-74
2022/02/21 12:29:24;;;;;;;9.50;1.75;;;;;;;3.31;100.00;99071.66;10173255;28;20060;-74
2022/02/21 12:34:23;;;;;;;12.00;1.85;;;;;;;3.35;100.00;99071.84;10184581;28;20073;-74
2022/02/21 12:39:23;;;;;;;8.45;1.73;;;;;;;3.41;100.00;99064.41;10190600;28;20056;-74
2022/02/21 12:44:21;;;;;;;9.82;2.85;;;;;;;3.31;100.00;99071.66;10191481;28;20042;-75
2022/02/21 12:49:32;;;;;;;9.95;1.88;;;;;;;3.30;100.00;99074.69;10197394;28;20048;-75
2022/02/21 12:54:29;;;;;;;5.75;1.40;;;;;;;3.22;100.00;99078.13;10191854;28;20551;-74
2022/02/21 12:59:27;;;;;;;9.75;1.90;;;;;;;3.10;100.00;99079.50;10198212;28;20107;-74
2022/02/21 13:04:30;;;;;;;10.75;1.75;;;;;;;3.08;100.00;99089.78;10182378;28;20037;-73
2022/02/21 13:09:27;;;;;;;6.18;1.50;;;;;;;2.86;100.00;99084.41;10195211;28;20045;-75
2022/02/21 13:14:28;;;;;;;7.63;1.52;;;;;;;3.00;100.00;99076.25;10203684;28;20050;-75
2022/02/21 13:19:30;;;;;;;7.40;2.47;;;;;;;3.16;100.00;99086.38;10187866;28;20069;-75
2022/02/21 13:24:35;;;;;;;9.05;2.00;;;;;;;3.20;100.00;99096.53;10184731;28;20088;-75
2022/02/21 13:29:42;;;;;;;4.00;1.50;;;;;;;2.85;100.00;99093.59;10184249;28;20061;-74
2022/02/21 13:34:51;;;;;;;5.53;1.63;;;;;;;3.00;100.00;99093.25;10194344;28;20045;-74
2022/02/21 13:40:09;;;;;;;5.43;2.08;;;;;;;2.91;100.00;99095.88;10183089;28;20050;-73
2022/02/21 13:45:33;;;;;;;4.90;1.80;;;;;;;2.94;100.00;99099.88;10181674;28;20060;-73
2022/02/21 13:50:49;;;;;;;;;;;;;;;2.98;100.00;99103.56;10167283;28;20100;-74
2022/02/21 13:56:09;;;;;;;5.38;2.00;;;;;;;2.99;100.00;99105.13;10186678;28;20391;-74
2022/02/21 14:01:49;;;;;;;4.38;2.00;;;;;;;3.01;100.00;99116.44;10186790;28;20050;-74
2022/02/21 14:06:45;;;;;;;4.00;1.98;;;;;;;3.14;100.00;99126.38;10174487;28;20534;-74
2022/02/21 14:11:43;;;;;;;3.13;1.52;;;;;;;3.10;100.00;99140.81;10192996;28;20488;-74
2022/02/21 14:16:49;;;;;;;5.55;1.65;;;;;;;3.04;100.00;99137.44;10192005;28;20108;-74
2022/02/21 14:21:51;;;;;;;5.10;1.23;;;;;;;3.02;100.00;99147.75;10205036;28;20037;-74
2022/02/21 14:26:48;;;;;;;3.78;1.20;;;;;;;3.00;100.00;99166.16;10209637;28;20034;-74
2022/02/21 14:31:45;;;;;;;4.32;1.48;;;;;;;3.08;100.00;99160.00;10205890;28;20070;-74
2022/02/21 14:36:42;;;;;;;5.35;1.58;;;;;;;3.21;100.00;99171.88;10188817;28;20100;-74
2022/02/21 14:41:39;;;;;;;4.00;1.38;;;;;;;3.13;100.00;99191.50;10192870;28;20557;-74
2022/02/21 14:46:36;;;;;;;3.50;1.58;;;;;;;3.12;100.00;99193.41;10183272;28;20084;-74
2022/02/21 14:51:32;;;;;;;6.70;2.50;;;;;;;3.20;100.00;99193.78;10183321;28;20500;-74
2022/02/21 14:56:32;;;;;;;5.20;2.15;;;;;;;3.15;100.00;99198.19;10184642;28;20050;-73
2022/02/21 15:01:29;;;;;;;5.40;2.65;;;;;;;3.16;100.00;99202.50;10184204;28;20065;-74
2022/02/21 15:06:27;;;;;;;7.63;2.80;;;;;;;3.21;100.00;99217.00;10190779;28;20054;-75
2022/02/21 15:11:26;;;;;;;5.80;2.90;;;;;;;3.17;100.00;99223.00;10190447;28;20112;-75
2022/02/21 15:16:25;;;;;;;5.28;3.22;;;;;;;3.17;100.00;99233.00;10189405;28;20041;-74
2022/02/21 15:21:21;;;;;;;7.18;3.83;;;;;;;3.30;100.00;99242.19;10186975;28;20054;-75
2022/02/21 15:26:18;;;;;;;8.10;3.78;;;;;;;3.22;100.00;99261.81;10191188;28;20064;-74
2022/02/21 15:31:15;;;;;;;8.25;4.00;;;;;;;3.23;100.00;99276.94;10191962;28;20088;-75
2022/02/21 15:36:11;;;;;;;7.15;3.55;;;;;;;3.28;100.00;99290.31;10190166;28;20057;-73
2022/02/21 15:41:09;;;;;;;4.57;2.90;;;;;;;3.24;100.00;99302.81;10190867;28;20076;-74
2022/02/21 15:46:08;;;;;;;5.72;2.95;;;;;;;3.14;100.00;99322.75;10185458;28;20119;-74
2022/02/21 15:51:05;;;;;;;5.88;3.30;;;;;;;3.17;100.00;99352.63;10185785;28;20111;-75
2022/02/21 15:56:04;;;;;;;5.22;2.70;;;;;;;3.20;100.00;99377.44;10184343;28;20057;-75
2022/02/21 16:01:05;;;;;;;6.47;2.85;;;;;;;3.19;100.00;99387.47;10186903;28;20500;-76
2022/02/21 16:06:03;;;;;;;4.13;2.33;;;;;;;3.30;100.00;99398.88;10178489;28;20053;-75
2022/02/21 16:11:01;;;;;;;3.60;2.08;;;;;;;3.27;100.00;99419.19;10182486;28;20069;-75
2022/02/21 16:15:57;;;;;;;4.97;2.45;;;;;;;3.23;100.00;99449.81;10182766;28;20049;-73
2022/02/21 16:20:54;;;;;;;6.40;2.03;;;;;;;3.29;100.00;99441.28;10181610;28;20050;-73
2022/02/21 16:25:53;;;;;;;5.78;2.60;;;;;;;3.38;100.00;99465.69;10181108;28;20050;-73
2022/02/21 16:30:51;;;;;;;4.38;2.20;;;;;;;3.33;100.00;99472.00;10182254;28;20046;-73
2022/02/21 16:35:49;;;;;;;4.38;1.90;;;;;;;3.34;100.00;99486.31;10183707;28;20049;-73
2022/02/21 16:40:45;;;;;;;6.43;2.38;;;;;;;3.32;100.00;99499.34;10183293;28;20072;-73
2022/02/21 16:45:43;;;;;;;4.68;1.58;;;;;;;3.35;100.00;99504.13;10182466;28;20057;-73
2022/02/21 16:50:40;;;;;;;7.28;1.98;;;;;;;3.42;100.00;99519.94;10185441;28;20046;-73
2022/02/21 16:55:37;;;;;;;4.05;1.40;;;;;;;3.43;100.00;99522.34;10177486;28;20397;-75
2022/02/21 17:00:34;;;;;;;6.88;1.02;;;;;;;3.43;100.00;99527.75;10186813;28;20466;-74
2022/02/21 17:05:31;;;;;;;5.68;1.38;;;;;;;3.43;100.00;99537.75;10189472;28;20472;-74
2022/02/21 17:10:28;;;;;;;7.32;1.40;;;;;;;3.44;100.00;99537.47;10181895;28;20053;-74
2022/02/21 17:15:24;;;;;;;13.60;4.72;;;;;;;3.50;100.00;99549.75;10183903;28;20042;-74
2022/02/21 17:20:21;;;;;;;7.25;1.30;;;;;;;3.57;100.00;99550.19;10184949;28;20411;-74
2022/02/21 17:25:18;;;;;;;6.93;1.20;;;;;;;3.65;100.00;99556.00;10189315;28;20415;-74
2022/02/21 17:30:14;;;;;;;12.20;1.15;;;;;;;3.70;100.00;99575.63;10189686;28;20445;-74
2022/02/21 17:35:11;;;;;;;11.05;1.65;;;;;;;3.71;100.00;99598.03;10187295;28;20454;-74
2022/02/21 17:40:08;;;;;;;8.60;1.27;;;;;;;3.74;100.00;99613.69;10180502;28;20073;-74
2022/02/21 17:45:06;;;;;;;11.48;1.23;;;;;;;3.73;100.00;99625.59;10180269;28;20077;-74
2022/02/21 17:50:04;;;;;;;7.35;1.10;;;;;;;3.71;100.00;99631.31;10186068;28;20458;-73
2022/02/21 17:55:01;;;;;;;11.35;1.50;;;;;;;3.75;100.00;99636.91;10197174;28;20046;-73
2022/02/21 17:59:57;;;;;;;15.80;2.15;;;;;;;3.75;100.00;99653.91;10192930;28;20062;-73
2022/02/21 18:04:54;;;;;;;12.40;1.80;;;;;;;3.85;100.00;99674.56;10187485;28;20519;-73
2022/02/21 18:09:50;;;;;;;17.77;2.13;;;;;;;3.90;100.00;99682.59;10185673;28;20095;-74
2022/02/21 18:14:47;;;;;;;19.10;2.50;;;;;;;3.95;100.00;99701.44;10186347;28;20128;-73
2022/02/21 18:19:44;;;;;;;9.85;1.85;;;;;;;3.94;100.00;99710.63;10186844;28;20515;-73
2022/02/21 18:24:41;;;;;;;20.35;2.75;;;;;;;4.02;100.00;99727.31;10185116;28;20527;-74
2022/02/21 18:29:38;;;;;;;15.68;2.70;;;;;;;4.06;100.00;99731.00;10181405;28;20045;-74
2022/02/21 18:34:42;;;;;;;22.83;2.60;;;;;;;4.12;100.00;99748.75;10182123;28;20081;-73
2022/02/21 18:39:39;;;;;;;18.60;2.78;;;;;;;4.16;100.00;99760.59;10187099;28;20065;-74
2022/02/21 18:44:36;;;;;;;25.52;2.85;;;;;;;4.16;100.00;99771.41;10186971;28;20550;-74
2022/02/21 18:49:33;;;;;;;20.40;4.15;;;;;;;4.20;100.00;99780.50;10188491;28;20050;-73
2022/02/21 18:54:29;;;;;;;18.58;3.05;;;;;;;4.24;100.00;99796.97;10188980;28;20041;-73
2022/02/21 18:59:28;;;;;;;21.88;2.63;;;;;;;4.27;100.00;99805.31;10199763;28;20577;-75
2022/02/21 19:04:25;;;;;;;19.45;2.92;;;;;;;4.34;100.00;99811.13;10193201;28;20177;-73
2022/02/21 19:09:22;;;;;;;13.75;3.17;;;;;;;4.39;100.00;99823.75;10197623;28;20050;-73
2022/02/21 19:14:18;;;;;;;21.15;2.92;;;;;;;4.42;100.00;99840.19;10188495;28;20499;-73
2022/02/21 19:19:15;;;;;;;24.17;2.83;;;;;;;4.54;100.00;99841.63;10187241;28;20049;-74
2022/02/21 19:24:11;;;;;;;21.63;2.78;;;;;;;4.59;100.00;99866.69;10192949;28;20050;-73
2022/02/21 19:29:08;;;;;;;23.38;3.70;;;;;;;4.61;100.00;99869.09;10193556;28;20070;-74
2022/02/21 19:34:04;;;;;;;29.45;4.20;;;;;;;4.64;100.00;99879.31;10194518;28;20077;-73
2022/02/21 19:39:01;;;;;;;27.20;4.13;;;;;;;4.61;100.00;99885.34;10190946;28;20108;-73
2022/02/21 19:43:58;;;;;;;31.08;3.83;;;;;;;4.63;100.00;99902.09;10194534;28;20085;-75
2022/02/21 19:48:55;;;;;;;32.83;4.82;;;;;;;4.61;100.00;99901.59;10196860;28;20125;-75
2022/02/21 19:53:52;;;;;;;27.65;4.30;;;;;;;4.55;100.00;99924.44;10196872;28;20185;-73
2022/02/21 19:58:49;;;;;;;36.72;4.22;;;;;;;4.60;100.00;99935.19;10190255;28;20092;-75
2022/02/21 20:03:45;;;;;;;33.45;3.60;;;;;;;4.66;100.00;99946.72;10192306;28;20116;-74
2022/02/21 20:08:43;;;;;;;18.77;3.08;;;;;;;4.62;100.00;99957.38;10181948;28;20074;-73
2022/02/21 20:13:40;;;;;;;21.63;4.13;;;;;;;4.66;100.00;99974.59;10203188;28;20042;-73
2022/02/21 20:18:36;;;;;;;36.03;4.85;;;;;;;4.72;100.00;99984.25;10186831;28;20053;-74
2022/02/21 20:23:37;;;;;;;27.63;3.45;;;;;;;4.77;100.00;99980.66;10188182;28;20766;-74
2022/02/21 20:28:34;;;;;;;30.45;3.78;;;;;;;4.83;100.00;99991.13;10191924;28;20466;-74
2022/02/21 20:33:31;;;;;;;28.17;3.63;;;;;;;4.82;100.00;100000.34;10187562;28;20049;-74
2022/02/21 20:38:28;;;;;;;20.88;4.38;;;;;;;4.78;100.00;100012.88;10200133;28;20160;-74
2022/02/21 20:43:25;;;;;;;23.52;2.72;;;;;;;4.80;100.00;100024.22;10189774;28;20038;-74
2022/02/21 20:48:22;;;;;;;24.20;2.72;;;;;;;4.84;100.00;100032.56;10190094;28;20729;-74
2022/02/21 20:53:18;;;;;;;31.25;4.97;;;;;;;4.84;100.00;100052.31;10191583;28;20050;-74
2022/02/21 20:58:15;;;;;;;18.55;3.30;;;;;;;4.84;100.00;100051.50;10190372;28;20119;-74
2022/02/21 21:03:12;;;;;;;29.77;4.03;;;;;;;4.87;100.00;100072.56;10189045;28;20557;-73
2022/02/21 21:08:15;;;;;;;28.90;3.47;;;;;;;4.86;100.00;100081.81;10190439;28;20569;-75
2022/02/21 21:13:15;;;;;;;20.85;2.75;;;;;;;4.85;100.00;100080.22;10187329;28;20038;-74
2022/02/21 21:18:13;;;;;;;28.15;4.20;;;;;;;4.89;100.00;100096.69;10181961;28;20084;-72
2022/02/21 21:23:09;;;;;;;27.27;4.43;;;;;;;4.83;100.00;100123.84;10184904;28;20581;-70
2022/02/21 21:28:10;;;;;;;27.70;4.45;;;;;;;4.84;100.00;100139.00;10209200;28;20049;-72
2022/02/21 21:33:10;;;;;;;29.35;4.78;;;;;;;4.84;100.00;100141.69;10204364;28;20069;-72
2022/02/21 21:38:08;;;;;;;34.85;4.28;;;;;;;4.85;100.00;100150.66;10197800;28;20056;-72
2022/02/21 21:43:06;;;;;;;34.88;4.00;;;;;;;4.83;100.00;100159.06;10194651;28;20049;-74
2022/02/21 21:48:04;;;;;;;35.08;5.68;;;;;;;4.80;100.00;100167.78;10196607;28;20100;-75
2022/02/21 21:53:01;;;;;;;28.23;3.55;;;;;;;4.84;100.00;100176.91;10198289;28;20458;-74
2022/02/21 21:57:59;;;;;;;37.20;4.85;;;;;;;4.85;100.00;100183.97;10193930;28;20069;-74
2022/02/21 22:02:55;;;;;;;24.67;5.30;;;;;;;4.87;100.00;100196.38;10193853;28;20041;-73
2022/02/21 22:07:52;;;;;;;25.55;3.78;;;;;;;4.85;100.00;100205.63;10194849;28;20077;-73
2022/02/21 22:12:51;;;;;;;35.17;3.67;;;;;;;4.88;100.00;100217.78;10200521;28;20042;-73
2022/02/21 22:17:48;;;;;;;27.48;3.50;;;;;;;4.92;100.00;100220.69;10196076;28;20077;-72
2022/02/21 22:22:45;;;;;;;31.85;4.13;;;;;;;4.93;100.00;100227.75;10194367;28;20034;-72
2022/02/21 22:27:42;;;;;;;28.90;4.50;;;;;;;4.95;100.00;100237.19;10195051;28;20129;-73
2022/02/21 22:32:39;;;;;;;24.42;4.35;;;;;;;4.94;100.00;100251.00;10196461;28;20430;-72
2022/02/21 22:37:37;;;;;;;38.45;4.43;;;;;;;4.92;100.00;100236.94;10194698;28;20038;-72
2022/02/21 22:42:34;;;;;;;32.65;5.00;;;;;;;4.88;100.00;100257.63;10199836;28;20100;-72
2022/02/21 22:47:30;;;;;;;36.60;4.68;;;;;;;4.82;100.00;100276.63;10196538;28;20046;-72
2022/02/21 22:52:28;;;;;;;35.30;4.18;;;;;;;4.79;100.00;100288.03;10198378;28;20073;-70
2022/02/21 22:57:25;;;;;;;29.92;4.65;;;;;;;4.81;100.00;100318.34;10193640;28;20157;-70